sensor_id;sensor_type;location;lat;lon;timestamp;pressure;altitude;pressure_sealevel;temperature;humidity
40954;BME280;26686;50.130;8.710;2023-04-24T00:00:50;98961.09;;;13.75;69.87
40954;BME280;26686;50.130;8.710;2023-04-24T00:05:52;98949.72;;;13.73;69.71
40954;BME280;26686;50.130;8.710;2023-04-24T00:10:53;98950.94;;;13.71;69.90
40954;BME280;26686;50.130;8.710;2023-04-24T00:15:55;98945.78;;;13.61;70.28
40954;BME280;26686;50.130;8.710;2023-04-24T00:20:57;98943.78;;;13.63;70.88
40954;BME280;26686;50.130;8.710;2023-04-24T00:25:59;98931.50;;;13.46;72.07
40954;BME280;26686;50.130;8.710;2023-04-24T00:31:01;98938.28;;;13.56;72.22
40954;BME280;26686;50.130;8.710;2023-04-24T00:36:03;98926.44;;;13.51;72.63
40954;BME280;26686;50.130;8.710;2023-04-24T00:41:04;98918.44;;;13.51;72.13
40954;BME280;26686;50.130;8.710;2023-04-24T00:46:06;98922.59;;;13.53;72.11
40954;BME280;26686;50.130;8.710;2023-04-24T00:51:07;98909.31;;;13.37;72.03
40954;BME280;26686;50.130;8.710;2023-04-24T00:56:09;98907.97;;;13.41;72.17
40954;BME280;26686;50.130;8.710;2023-04-24T01:01:11;98887.09;;;13.28;71.49
40954;BME280;26686;50.130;8.710;2023-04-24T01:06:13;98902.25;;;13.44;71.13
40954;BME280;26686;50.130;8.710;2023-04-24T01:11:16;98907.09;;;13.40;70.92
40954;BME280;26686;50.130;8.710;2023-04-24T01:16:18;98909.75;;;13.49;70.58
40954;BME280;26686;50.130;8.710;2023-04-24T01:21:25;98906.47;;;13.38;70.61
40954;BME280;26686;50.130;8.710;2023-04-24T01:26:29;98894.94;;;13.30;70.88
40954;BME280;26686;50.130;8.710;2023-04-24T01:31:31;98896.16;;;13.27;71.26
40954;BME280;26686;50.130;8.710;2023-04-24T01:36:34;98905.28;;;13.33;71.17
40954;BME280;26686;50.130;8.710;2023-04-24T01:41:36;98910.84;;;13.23;71.48
40954;BME280;26686;50.130;8.710;2023-04-24T01:46:39;98902.56;;;13.09;72.31
40954;BME280;26686;50.130;8.710;2023-04-24T01:51:41;98904.88;;;13.13;72.21
40954;BME280;26686;50.130;8.710;2023-04-24T01:56:43;98889.19;;;13.09;72.21
40954;BME280;26686;50.130;8.710;2023-04-24T02:01:44;98895.00;;;13.13;72.59
40954;BME280;26686;50.130;8.710;2023-04-24T02:06:46;98885.19;;;13.14;72.37
40954;BME280;26686;50.130;8.710;2023-04-24T02:11:48;98885.84;;;13.07;72.45
40954;BME280;26686;50.130;8.710;2023-04-24T02:16:49;98896.88;;;13.13;72.24
40954;BME280;26686;50.130;8.710;2023-04-24T02:21:51;98892.38;;;13.05;72.31
40954;BME280;26686;50.130;8.710;2023-04-24T02:26:53;98868.88;;;13.00;72.29
40954;BME280;26686;50.130;8.710;2023-04-24T02:31:54;98887.22;;;12.95;72.44
40954;BME280;26686;50.130;8.710;2023-04-24T02:36:56;98882.28;;;12.84;73.12
40954;BME280;26686;50.130;8.710;2023-04-24T02:41:57;98879.44;;;12.77;73.52
40954;BME280;26686;50.130;8.710;2023-04-24T02:46:59;98880.47;;;12.68;74.34
40954;BME280;26686;50.130;8.710;2023-04-24T02:52:01;98905.66;;;12.65;74.71
40954;BME280;26686;50.130;8.710;2023-04-24T02:57:02;98882.34;;;12.51;75.24
40954;BME280;26686;50.130;8.710;2023-04-24T03:02:04;98908.72;;;12.54;75.38
40954;BME280;26686;50.130;8.710;2023-04-24T03:07:07;98907.84;;;12.62;75.06
40954;BME280;26686;50.130;8.710;2023-04-24T03:12:08;98897.34;;;12.52;75.06
40954;BME280;26686;50.130;8.710;2023-04-24T03:17:10;98912.72;;;12.50;75.54
40954;BME280;26686;50.130;8.710;2023-04-24T03:22:12;98913.34;;;12.52;75.51
40954;BME280;26686;50.130;8.710;2023-04-24T03:27:14;98906.38;;;12.51;75.40
40954;BME280;26686;50.130;8.710;2023-04-24T03:32:15;98916.19;;;12.50;75.34
40954;BME280;26686;50.130;8.710;2023-04-24T03:37:17;98911.72;;;12.51;75.55
40954;BME280;26686;50.130;8.710;2023-04-24T03:42:18;98930.72;;;12.56;75.39
40954;BME280;26686;50.130;8.710;2023-04-24T03:47:20;98925.22;;;12.49;75.19
40954;BME280;26686;50.130;8.710;2023-04-24T03:52:22;98940.41;;;12.57;75.34
40954;BME280;26686;50.130;8.710;2023-04-24T03:57:24;98937.06;;;12.55;75.33
40954;BME280;26686;50.130;8.710;2023-04-24T04:02:26;98953.22;;;12.53;75.68
40954;BME280;26686;50.130;8.710;2023-04-24T04:07:28;98952.06;;;12.56;75.77
40954;BME280;26686;50.130;8.710;2023-04-24T04:12:31;98968.44;;;12.61;75.89
40954;BME280;26686;50.130;8.710;2023-04-24T04:17:33;98953.91;;;12.55;75.93
40954;BME280;26686;50.130;8.710;2023-04-24T04:22:36;98962.41;;;12.59;75.82
40954;BME280;26686;50.130;8.710;2023-04-24T04:27:39;98969.09;;;12.55;74.76
40954;BME280;26686;50.130;8.710;2023-04-24T04:32:42;98967.75;;;12.59;74.27
40954;BME280;26686;50.130;8.710;2023-04-24T04:37:45;98962.75;;;12.56;73.57
40954;BME280;26686;50.130;8.710;2023-04-24T04:42:46;98991.59;;;12.44;73.34
40954;BME280;26686;50.130;8.710;2023-04-24T04:47:49;98991.78;;;12.34;68.76
40954;BME280;26686;50.130;8.710;2023-04-24T04:52:50;98994.09;;;12.29;68.24
40954;BME280;26686;50.130;8.710;2023-04-24T04:57:52;98999.75;;;12.26;68.90
40954;BME280;26686;50.130;8.710;2023-04-24T05:02:54;98992.75;;;12.09;66.96
40954;BME280;26686;50.130;8.710;2023-04-24T05:08:09;99008.44;;;12.12;67.90
40954;BME280;26686;50.130;8.710;2023-04-24T05:13:27;99009.56;;;12.01;67.26
40954;BME280;26686;50.130;8.710;2023-04-24T05:18:40;99023.69;;;11.93;66.62
40954;BME280;26686;50.130;8.710;2023-04-24T05:23:42;99026.16;;;11.87;66.82
40954;BME280;26686;50.130;8.710;2023-04-24T05:28:44;99021.31;;;11.82;66.42
40954;BME280;26686;50.130;8.710;2023-04-24T05:33:45;99051.28;;;11.76;64.40
40954;BME280;26686;50.130;8.710;2023-04-24T05:38:47;99046.13;;;11.82;63.80
40954;BME280;26686;50.130;8.710;2023-04-24T05:43:49;99057.84;;;11.90;63.17
40954;BME280;26686;50.130;8.710;2023-04-24T05:48:51;99076.81;;;11.87;59.20
40954;BME280;26686;50.130;8.710;2023-04-24T05:53:53;99091.84;;;11.88;55.99
40954;BME280;26686;50.130;8.710;2023-04-24T05:58:55;99085.56;;;11.97;53.69
40954;BME280;26686;50.130;8.710;2023-04-24T06:03:58;99070.06;;;12.00;55.03
40954;BME280;26686;50.130;8.710;2023-04-24T06:09:00;99088.44;;;12.12;55.09
40954;BME280;26686;50.130;8.710;2023-04-24T06:14:02;99088.78;;;12.09;54.94
40954;BME280;26686;50.130;8.710;2023-04-24T06:19:03;99099.78;;;12.14;59.81
40954;BME280;26686;50.130;8.710;2023-04-24T06:24:06;99093.78;;;12.12;56.02
40954;BME280;26686;50.130;8.710;2023-04-24T06:29:08;99069.47;;;11.80;55.70
40954;BME280;26686;50.130;8.710;2023-04-24T06:34:10;99127.66;;;12.19;56.50
40954;BME280;26686;50.130;8.710;2023-04-24T06:39:12;99118.00;;;12.35;55.58
40954;BME280;26686;50.130;8.710;2023-04-24T06:44:15;99140.22;;;12.44;55.47
40954;BME280;26686;50.130;8.710;2023-04-24T06:49:18;99131.34;;;12.35;55.81
40954;BME280;26686;50.130;8.710;2023-04-24T06:54:19;99127.50;;;12.29;56.57
40954;BME280;26686;50.130;8.710;2023-04-24T06:59:21;99123.28;;;12.10;56.63
40954;BME280;26686;50.130;8.710;2023-04-24T07:04:23;99137.34;;;12.20;57.45
40954;BME280;26686;50.130;8.710;2023-04-24T07:09:27;99119.59;;;12.11;57.00
40954;BME280;26686;50.130;8.710;2023-04-24T07:14:28;99117.81;;;12.20;57.54
40954;BME280;26686;50.130;8.710;2023-04-24T07:19:33;99110.19;;;12.33;57.38
40954;BME280;26686;50.130;8.710;2023-04-24T07:24:35;99113.53;;;12.44;57.27
40954;BME280;26686;50.130;8.710;2023-04-24T07:29:37;99117.22;;;12.59;56.72
40954;BME280;26686;50.130;8.710;2023-04-24T07:34:39;99122.25;;;12.62;56.40
40954;BME280;26686;50.130;8.710;2023-04-24T07:39:41;99111.91;;;12.59;56.13
40954;BME280;26686;50.130;8.710;2023-04-24T07:44:43;99106.75;;;12.66;56.14
40954;BME280;26686;50.130;8.710;2023-04-24T07:49:45;99128.25;;;12.56;55.83
40954;BME280;26686;50.130;8.710;2023-04-24T07:54:49;99122.25;;;12.54;55.45
40954;BME280;26686;50.130;8.710;2023-04-24T07:59:51;99114.25;;;12.70;55.17
40954;BME280;26686;50.130;8.710;2023-04-24T08:04:52;99151.66;;;12.95;54.14
40954;BME280;26686;50.130;8.710;2023-04-24T08:10:01;99111.22;;;12.57;54.78
40954;BME280;26686;50.130;8.710;2023-04-24T08:15:03;99128.28;;;12.81;54.82
40954;BME280;26686;50.130;8.710;2023-04-24T08:20:05;99137.47;;;12.95;54.67
40954;BME280;26686;50.130;8.710;2023-04-24T08:25:08;99140.63;;;12.98;54.42
40954;BME280;26686;50.130;8.710;2023-04-24T08:30:10;99145.31;;;13.13;52.34
40954;BME280;26686;50.130;8.710;2023-04-24T08:35:11;99151.00;;;13.09;52.19
40954;BME280;26686;50.130;8.710;2023-04-24T08:40:14;99166.53;;;13.55;50.73
40954;BME280;26686;50.130;8.710;2023-04-24T08:45:18;99167.31;;;13.89;50.08
40954;BME280;26686;50.130;8.710;2023-04-24T08:50:21;99174.00;;;13.76;49.00
40954;BME280;26686;50.130;8.710;2023-04-24T08:55:24;99185.78;;;13.42;50.40
40954;BME280;26686;50.130;8.710;2023-04-24T09:00:26;99174.88;;;13.19;50.98
40954;BME280;26686;50.130;8.710;2023-04-24T09:05:29;99186.38;;;12.95;51.74
40954;BME280;26686;50.130;8.710;2023-04-24T09:10:31;99190.03;;;12.78;52.84
40954;BME280;26686;50.130;8.710;2023-04-24T09:15:32;99199.03;;;12.77;54.18
40954;BME280;26686;50.130;8.710;2023-04-24T09:21:02;99200.56;;;12.79;53.92
40954;BME280;26686;50.130;8.710;2023-04-24T09:26:04;99192.72;;;12.86;54.47
40954;BME280;26686;50.130;8.710;2023-04-24T09:31:12;99204.22;;;12.86;54.37
40954;BME280;26686;50.130;8.710;2023-04-24T09:36:17;99221.41;;;12.76;54.57
40954;BME280;26686;50.130;8.710;2023-04-24T09:41:18;99239.19;;;12.59;54.92
40954;BME280;26686;50.130;8.710;2023-04-24T09:46:20;99226.66;;;12.51;55.67
40954;BME280;26686;50.130;8.710;2023-04-24T09:51:37;99239.00;;;12.52;55.29
40954;BME280;26686;50.130;8.710;2023-04-24T09:56:42;99236.31;;;12.44;55.40
40954;BME280;26686;50.130;8.710;2023-04-24T10:01:45;99215.94;;;12.34;55.23
40954;BME280;26686;50.130;8.710;2023-04-24T10:06:49;99242.53;;;12.61;55.64
40954;BME280;26686;50.130;8.710;2023-04-24T10:11:52;99248.91;;;12.68;55.58
40954;BME280;26686;50.130;8.710;2023-04-24T10:16:55;99244.94;;;12.80;55.24
40954;BME280;26686;50.130;8.710;2023-04-24T10:22:00;99271.75;;;12.62;55.92
40954;BME280;26686;50.130;8.710;2023-04-24T10:27:03;99271.25;;;12.59;57.41
40954;BME280;26686;50.130;8.710;2023-04-24T10:32:06;99266.00;;;12.49;59.35
40954;BME280;26686;50.130;8.710;2023-04-24T10:37:08;99275.03;;;12.48;60.57
40954;BME280;26686;50.130;8.710;2023-04-24T10:42:16;99306.38;;;12.46;63.06
40954;BME280;26686;50.130;8.710;2023-04-24T10:47:18;99303.25;;;12.24;65.10
40954;BME280;26686;50.130;8.710;2023-04-24T10:52:20;99315.56;;;12.43;65.85
40954;BME280;26686;50.130;8.710;2023-04-24T10:57:28;99313.03;;;12.42;66.68
40954;BME280;26686;50.130;8.710;2023-04-24T11:02:41;99313.44;;;12.55;66.43
40954;BME280;26686;50.130;8.710;2023-04-24T11:08:12;99315.44;;;13.55;64.98
40954;BME280;26686;50.130;8.710;2023-04-24T11:13:21;99314.44;;;13.97;61.89
40954;BME280;26686;50.130;8.710;2023-04-24T11:18:23;99317.38;;;14.35;60.53
40954;BME280;26686;50.130;8.710;2023-04-24T11:23:24;99294.69;;;14.14;58.05
40954;BME280;26686;50.130;8.710;2023-04-24T11:28:28;99295.66;;;14.30;57.26
40954;BME280;26686;50.130;8.710;2023-04-24T11:33:31;99293.63;;;14.40;56.53
40954;BME280;26686;50.130;8.710;2023-04-24T11:38:32;99301.03;;;16.70;49.83
40954;BME280;26686;50.130;8.710;2023-04-24T11:43:34;99312.88;;;17.42;48.21
40954;BME280;26686;50.130;8.710;2023-04-24T11:48:36;99307.81;;;17.97;46.55
40954;BME280;26686;50.130;8.710;2023-04-24T11:53:41;99302.16;;;17.27;46.98
40954;BME280;26686;50.130;8.710;2023-04-24T11:58:44;99320.22;;;16.52;47.43
40954;BME280;26686;50.130;8.710;2023-04-24T12:03:50;99333.22;;;15.64;48.37
40954;BME280;26686;50.130;8.710;2023-04-24T12:08:53;99328.50;;;15.11;51.31
40954;BME280;26686;50.130;8.710;2023-04-24T12:14:11;99339.94;;;14.65;56.69
40954;BME280;26686;50.130;8.710;2023-04-24T12:19:21;99343.44;;;14.66;62.37
40954;BME280;26686;50.130;8.710;2023-04-24T12:24:23;99359.56;;;14.41;62.43
40954;BME280;26686;50.130;8.710;2023-04-24T12:29:24;99365.09;;;13.82;66.29
40954;BME280;26686;50.130;8.710;2023-04-24T12:34:26;99375.41;;;14.51;64.37
40954;BME280;26686;50.130;8.710;2023-04-24T12:39:28;99367.75;;;15.35;61.68
40954;BME280;26686;50.130;8.710;2023-04-24T12:44:33;99369.97;;;15.32;60.66
40954;BME280;26686;50.130;8.710;2023-04-24T12:49:36;99359.28;;;14.92;57.68
40954;BME280;26686;50.130;8.710;2023-04-24T12:54:37;99355.50;;;14.70;58.27
40954;BME280;26686;50.130;8.710;2023-04-24T12:59:39;99361.78;;;14.85;57.50
40954;BME280;26686;50.130;8.710;2023-04-24T13:04:46;99346.53;;;14.86;57.89
40954;BME280;26686;50.130;8.710;2023-04-24T13:09:49;99354.31;;;15.67;57.68
40954;BME280;26686;50.130;8.710;2023-04-24T13:14:53;99347.63;;;16.09;55.67
40954;BME280;26686;50.130;8.710;2023-04-24T13:19:55;99360.84;;;16.34;53.71
40954;BME280;26686;50.130;8.710;2023-04-24T13:24:57;99335.84;;;16.48;51.70
40954;BME280;26686;50.130;8.710;2023-04-24T13:29:58;99333.84;;;16.50;50.87
40954;BME280;26686;50.130;8.710;2023-04-24T13:35:01;99359.91;;;16.26;49.61
40954;BME280;26686;50.130;8.710;2023-04-24T13:40:03;99369.22;;;15.69;50.35
40954;BME280;26686;50.130;8.710;2023-04-24T13:45:07;99375.44;;;15.07;51.48
40954;BME280;26686;50.130;8.710;2023-04-24T13:50:25;99385.31;;;14.67;53.81
40954;BME280;26686;50.130;8.710;2023-04-24T13:55:27;99385.31;;;14.67;54.17
40954;BME280;26686;50.130;8.710;2023-04-24T14:00:28;99392.59;;;14.90;53.49
40954;BME280;26686;50.130;8.710;2023-04-24T14:05:30;99390.97;;;14.80;53.49
40954;BME280;26686;50.130;8.710;2023-04-24T14:10:31;99389.59;;;14.84;53.51
40954;BME280;26686;50.130;8.710;2023-04-24T14:15:35;99391.72;;;15.37;51.38
40954;BME280;26686;50.130;8.710;2023-04-24T14:20:37;99367.53;;;15.45;50.74
40954;BME280;26686;50.130;8.710;2023-04-24T14:25:38;99374.28;;;15.41;48.33
40954;BME280;26686;50.130;8.710;2023-04-24T14:30:40;99390.69;;;15.69;48.65
40954;BME280;26686;50.130;8.710;2023-04-24T14:35:42;99369.69;;;15.50;48.33
40954;BME280;26686;50.130;8.710;2023-04-24T14:40:44;99379.28;;;15.44;47.60
40954;BME280;26686;50.130;8.710;2023-04-24T14:46:06;99373.16;;;14.96;48.98
40954;BME280;26686;50.130;8.710;2023-04-24T14:51:07;99373.06;;;14.56;50.04
40954;BME280;26686;50.130;8.710;2023-04-24T14:56:09;99387.28;;;14.48;51.79
40954;BME280;26686;50.130;8.710;2023-04-24T15:01:11;99381.28;;;14.55;49.91
40954;BME280;26686;50.130;8.710;2023-04-24T15:06:12;99388.28;;;14.72;49.62
40954;BME280;26686;50.130;8.710;2023-04-24T15:11:14;99384.44;;;14.66;49.52
40954;BME280;26686;50.130;8.710;2023-04-24T15:16:15;99380.78;;;14.51;49.25
40954;BME280;26686;50.130;8.710;2023-04-24T15:21:17;99385.28;;;14.59;50.71
40954;BME280;26686;50.130;8.710;2023-04-24T15:26:19;99397.19;;;14.64;49.46
40954;BME280;26686;50.130;8.710;2023-04-24T15:31:21;99391.66;;;14.49;47.71
40954;BME280;26686;50.130;8.710;2023-04-24T15:36:24;99378.13;;;14.43;48.97
40954;BME280;26686;50.130;8.710;2023-04-24T15:41:26;99390.66;;;14.50;47.66
40954;BME280;26686;50.130;8.710;2023-04-24T15:46:27;99385.47;;;14.41;47.89
40954;BME280;26686;50.130;8.710;2023-04-24T15:51:29;99405.72;;;14.43;48.01
40954;BME280;26686;50.130;8.710;2023-04-24T15:56:32;99408.72;;;14.48;48.12
40954;BME280;26686;50.130;8.710;2023-04-24T16:01:34;99413.44;;;14.38;48.22
40954;BME280;26686;50.130;8.710;2023-04-24T16:06:36;99397.88;;;14.25;49.10
40954;BME280;26686;50.130;8.710;2023-04-24T16:11:38;99397.38;;;14.30;48.86
40954;BME280;26686;50.130;8.710;2023-04-24T16:16:40;99411.25;;;14.42;48.91
40954;BME280;26686;50.130;8.710;2023-04-24T16:21:41;99407.72;;;14.33;49.40
40954;BME280;26686;50.130;8.710;2023-04-24T16:26:43;99424.78;;;14.32;49.55
40954;BME280;26686;50.130;8.710;2023-04-24T16:31:45;99411.09;;;14.27;49.05
40954;BME280;26686;50.130;8.710;2023-04-24T16:36:46;99416.13;;;14.22;49.39
40954;BME280;26686;50.130;8.710;2023-04-24T16:41:48;99416.28;;;14.28;49.42
40954;BME280;26686;50.130;8.710;2023-04-24T16:46:50;99403.53;;;14.30;49.39
40954;BME280;26686;50.130;8.710;2023-04-24T16:51:52;99421.31;;;14.40;47.69
40954;BME280;26686;50.130;8.710;2023-04-24T16:56:54;99421.78;;;14.27;48.49
40954;BME280;26686;50.130;8.710;2023-04-24T17:01:55;99412.09;;;14.18;48.67
40954;BME280;26686;50.130;8.710;2023-04-24T17:06:57;99415.44;;;14.20;49.05
40954;BME280;26686;50.130;8.710;2023-04-24T17:11:59;99424.81;;;14.07;48.19
40954;BME280;26686;50.130;8.710;2023-04-24T17:17:02;99419.13;;;14.02;48.64
40954;BME280;26686;50.130;8.710;2023-04-24T17:22:04;99417.41;;;13.93;48.89
40954;BME280;26686;50.130;8.710;2023-04-24T17:27:06;99426.81;;;13.89;49.18
40954;BME280;26686;50.130;8.710;2023-04-24T17:32:15;99423.09;;;13.90;49.18
40954;BME280;26686;50.130;8.710;2023-04-24T17:37:17;99432.00;;;13.90;48.90
40954;BME280;26686;50.130;8.710;2023-04-24T17:42:23;99426.44;;;13.84;49.71
40954;BME280;26686;50.130;8.710;2023-04-24T17:47:24;99421.75;;;13.77;48.92
40954;BME280;26686;50.130;8.710;2023-04-24T17:52:27;99431.63;;;13.77;49.46
40954;BME280;26686;50.130;8.710;2023-04-24T17:57:29;99429.78;;;13.69;49.47
40954;BME280;26686;50.130;8.710;2023-04-24T18:02:31;99429.44;;;13.72;50.15
40954;BME280;26686;50.130;8.710;2023-04-24T18:07:32;99435.47;;;13.74;50.76
40954;BME280;26686;50.130;8.710;2023-04-24T18:12:34;99446.19;;;13.83;49.64
40954;BME280;26686;50.130;8.710;2023-04-24T18:17:36;99425.53;;;13.50;51.90
40954;BME280;26686;50.130;8.710;2023-04-24T18:22:37;99457.63;;;13.50;53.98
40954;BME280;26686;50.130;8.710;2023-04-24T18:27:40;99466.47;;;13.16;54.82
40954;BME280;26686;50.130;8.710;2023-04-24T18:32:42;99471.28;;;13.13;55.20
40954;BME280;26686;50.130;8.710;2023-04-24T18:37:44;99476.59;;;13.04;56.02
40954;BME280;26686;50.130;8.710;2023-04-24T18:42:46;99478.22;;;12.97;57.06
40954;BME280;26686;50.130;8.710;2023-04-24T18:47:49;99489.28;;;12.76;58.45
40954;BME280;26686;50.130;8.710;2023-04-24T18:52:51;99492.78;;;12.77;58.35
40954;BME280;26686;50.130;8.710;2023-04-24T18:57:52;99503.47;;;12.77;58.66
40954;BME280;26686;50.130;8.710;2023-04-24T19:02:54;99507.44;;;12.72;59.19
40954;BME280;26686;50.130;8.710;2023-04-24T19:08:00;99494.72;;;12.48;59.58
40954;BME280;26686;50.130;8.710;2023-04-24T19:13:02;99517.91;;;12.66;59.61
40954;BME280;26686;50.130;8.710;2023-04-24T19:18:03;99523.63;;;12.53;61.13
40954;BME280;26686;50.130;8.710;2023-04-24T19:23:07;99539.03;;;12.41;63.40
40954;BME280;26686;50.130;8.710;2023-04-24T19:28:09;99530.56;;;12.28;64.83
40954;BME280;26686;50.130;8.710;2023-04-24T19:33:11;99537.44;;;12.30;66.40
40954;BME280;26686;50.130;8.710;2023-04-24T19:38:13;99531.28;;;12.12;68.67
40954;BME280;26686;50.130;8.710;2023-04-24T19:43:15;99537.88;;;12.08;70.49
40954;BME280;26686;50.130;8.710;2023-04-24T19:48:16;99533.19;;;12.19;70.17
40954;BME280;26686;50.130;8.710;2023-04-24T19:53:18;99534.56;;;12.24;71.96
40954;BME280;26686;50.130;8.710;2023-04-24T19:58:20;99539.03;;;12.23;71.05
40954;BME280;26686;50.130;8.710;2023-04-24T20:03:21;99538.22;;;12.23;69.78
40954;BME280;26686;50.130;8.710;2023-04-24T20:08:33;99548.94;;;12.13;70.09
40954;BME280;26686;50.130;8.710;2023-04-24T20:13:38;99550.84;;;12.02;70.07
40954;BME280;26686;50.130;8.710;2023-04-24T20:18:40;99545.56;;;11.93;69.62
40954;BME280;26686;50.130;8.710;2023-04-24T20:23:42;99542.94;;;11.83;70.07
40954;BME280;26686;50.130;8.710;2023-04-24T20:28:43;99530.59;;;11.82;71.88
40954;BME280;26686;50.130;8.710;2023-04-24T20:33:45;99526.06;;;11.82;70.07
40954;BME280;26686;50.130;8.710;2023-04-24T20:38:46;99541.63;;;11.87;70.02
40954;BME280;26686;50.130;8.710;2023-04-24T20:43:49;99525.09;;;11.83;69.98
40954;BME280;26686;50.130;8.710;2023-04-24T20:48:50;99528.28;;;11.87;69.68
40954;BME280;26686;50.130;8.710;2023-04-24T20:53:52;99523.25;;;11.84;69.29
40954;BME280;26686;50.130;8.710;2023-04-24T20:58:54;99529.44;;;11.84;70.12
40954;BME280;26686;50.130;8.710;2023-04-24T21:03:57;99531.97;;;11.86;70.13
40954;BME280;26686;50.130;8.710;2023-04-24T21:09:00;99522.38;;;11.93;70.48
40954;BME280;26686;50.130;8.710;2023-04-24T21:14:02;99524.75;;;11.96;69.73
40954;BME280;26686;50.130;8.710;2023-04-24T21:19:04;99528.44;;;11.95;70.20
40954;BME280;26686;50.130;8.710;2023-04-24T21:24:08;99517.75;;;11.95;71.12
40954;BME280;26686;50.130;8.710;2023-04-24T21:29:10;99512.50;;;12.03;70.98
40954;BME280;26686;50.130;8.710;2023-04-24T21:34:12;99509.97;;;12.02;71.52
40954;BME280;26686;50.130;8.710;2023-04-24T21:39:14;99509.75;;;11.95;71.81
40954;BME280;26686;50.130;8.710;2023-04-24T21:44:15;99508.66;;;11.88;72.57
40954;BME280;26686;50.130;8.710;2023-04-24T21:49:17;99515.97;;;11.86;72.31
40954;BME280;26686;50.130;8.710;2023-04-24T21:54:18;99508.53;;;11.80;72.33
40954;BME280;26686;50.130;8.710;2023-04-24T21:59:21;99500.84;;;11.77;72.55
40954;BME280;26686;50.130;8.710;2023-04-24T22:04:22;99509.75;;;11.67;72.91
40954;BME280;26686;50.130;8.710;2023-04-24T22:09:24;99495.59;;;11.67;73.76
40954;BME280;26686;50.130;8.710;2023-04-24T22:14:25;99497.91;;;11.52;73.72
40954;BME280;26686;50.130;8.710;2023-04-24T22:19:27;99488.22;;;11.51;75.76
40954;BME280;26686;50.130;8.710;2023-04-24T22:24:28;99489.63;;;11.55;75.85
40954;BME280;26686;50.130;8.710;2023-04-24T22:29:31;99495.06;;;11.63;76.45
40954;BME280;26686;50.130;8.710;2023-04-24T22:34:32;99502.63;;;11.58;74.94
40954;BME280;26686;50.130;8.710;2023-04-24T22:39:34;99500.44;;;11.54;74.97
40954;BME280;26686;50.130;8.710;2023-04-24T22:44:35;99504.63;;;11.56;76.78
40954;BME280;26686;50.130;8.710;2023-04-24T22:49:37;99502.91;;;11.65;77.87
40954;BME280;26686;50.130;8.710;2023-04-24T22:54:40;99498.25;;;11.67;78.57
40954;BME280;26686;50.130;8.710;2023-04-24T22:59:42;99499.78;;;11.70;77.75
40954;BME280;26686;50.130;8.710;2023-04-24T23:04:44;99498.41;;;11.65;77.98
40954;BME280;26686;50.130;8.710;2023-04-24T23:09:45;99495.06;;;11.63;80.72
40954;BME280;26686;50.130;8.710;2023-04-24T23:14:47;99500.75;;;11.68;78.85
40954;BME280;26686;50.130;8.710;2023-04-24T23:19:48;99494.94;;;11.55;77.59
40954;BME280;26686;50.130;8.710;2023-04-24T23:24:50;99465.44;;;11.39;76.41
40954;BME280;26686;50.130;8.710;2023-04-24T23:29:51;99502.09;;;11.55;77.42
40954;BME280;26686;50.130;8.710;2023-04-24T23:34:53;99497.22;;;11.50;77.78
40954;BME280;26686;50.130;8.710;2023-04-24T23:39:54;99483.78;;;11.42;76.82
40954;BME280;26686;50.130;8.710;2023-04-24T23:44:56;99477.88;;;11.20;76.76
40954;BME280;26686;50.130;8.710;2023-04-24T23:49:58;99469.91;;;11.10;76.23
40954;BME280;26686;50.130;8.710;2023-04-24T23:55:01;99467.81;;;11.14;76.68
